Time;durP1;ratioP1;P1;durP2;ratioP2;P2;SDS_P1;SDS_P2;PMS_P1;PMS_P2;Temp;Humidity;BMP_temperature;BMP_pressure;BME280_temperature;BME280_humidity;BME280_pressure;Samples;Min_cycle;Max_cycle;Signal;HPM_P1;HPM_P2
2022/06/15 00:01:20;;;;;;;4.43;3.20;;;22.10;55.60;;;;;;5092510;28;20046;-79
2022/06/15 00:03:46;;;;;;;4.10;3.05;;;22.20;55.20;;;;;;5074211;28;20479;-79
2022/06/15 00:06:13;;;;;;;4.70;3.28;;;22.00;55.40;;;;;;5091395;28;20059;-79
2022/06/15 00:08:41;;;;;;;4.80;2.90;;;21.90;56.10;;;;;;5075017;28;20031;-77
2022/06/15 00:11:13;;;;;;;5.72;3.20;;;22.00;55.80;;;;;;5091892;28;20027;-79
2022/06/15 00:13:39;;;;;;;5.20;3.25;;;22.10;55.00;;;;;;5073245;28;20031;-79
2022/06/15 00:16:06;;;;;;;4.10;3.05;;;22.10;54.60;;;;;;5072666;28;20036;-78
2022/06/15 00:18:33;;;;;;;5.45;3.10;;;22.30;54.30;;;;;;5074104;28;20029;-79
2022/06/15 00:20:59;;;;;;;4.30;2.90;;;22.40;53.70;;;;;;5082126;28;20040;-79
2022/06/15 00:23:26;;;;;;;4.55;2.80;;;22.40;53.90;;;;;;5064520;28;20063;-79
2022/06/15 00:25:53;;;;;;;5.95;3.05;;;22.30;54.00;;;;;;5091944;28;20386;-78
2022/06/15 00:28:20;;;;;;;3.78;2.95;;;22.30;55.20;;;;;;5088969;28;20489;-79
2022/06/15 00:30:49;;;;;;;4.53;3.33;;;22.20;54.40;;;;;;5073028;28;20524;-78
2022/06/15 00:33:15;;;;;;;3.60;2.92;;;22.30;54.50;;;;;;5073446;28;20039;-78
2022/06/15 00:35:41;;;;;;;4.50;3.08;;;22.40;54.40;;;;;;5073197;28;20632;-78
2022/06/15 00:38:07;;;;;;;7.22;3.58;;;22.20;55.20;;;;;;5073087;28;20135;-77
2022/06/15 00:40:34;;;;;;;4.75;3.10;;;21.90;55.70;;;;;;5091869;28;20032;-79
2022/06/15 00:43:00;;;;;;;5.18;3.10;;;21.80;55.80;;;;;;5074229;28;20016;-78
2022/06/15 00:45:26;;;;;;;4.57;2.92;;;21.80;56.00;;;;;;5073006;28;20387;-76
2022/06/15 00:47:52;;;;;;;4.10;2.92;;;22.00;55.70;;;;;;5073716;28;20028;-76
2022/06/15 00:50:23;;;;;;;4.50;3.20;;;22.00;55.30;;;;;;5066934;28;20029;-78
2022/06/15 00:53:07;;;;;;;5.22;3.38;;;22.20;55.10;;;;;;5073596;28;20116;-75
2022/06/15 00:55:34;;;;;;;4.35;2.67;;;22.30;55.20;;;;;;5073531;28;20071;-75
2022/06/15 00:58:07;;;;;;;4.63;3.20;;;22.20;55.10;;;;;;5078260;28;20021;-79
2022/06/15 01:00:33;;;;;;;4.38;3.03;;;22.10;55.40;;;;;;5093616;28;20173;-79
2022/06/15 01:02:59;;;;;;;4.18;2.90;;;22.20;55.40;;;;;;5072907;28;20032;-77
2022/06/15 01:05:57;;;;;;;6.07;3.10;;;22.20;54.90;;;;;;5058515;28;20037;-77
2022/06/15 01:08:59;;;;;;;4.82;3.10;;;22.10;55.20;;;;;;5058983;28;20395;-80
2022/06/15 01:12:00;;;;;;;6.15;3.10;;;22.20;55.00;;;;;;5090825;28;20064;-78
2022/06/15 01:14:25;;;;;;;5.03;2.85;;;22.20;55.20;;;;;;5066722;28;20032;-76
2022/06/15 01:17:03;;;;;;;4.13;3.25;;;22.10;55.00;;;;;;5095370;28;20081;-79
2022/06/15 01:19:59;;;;;;;4.25;3.08;;;22.10;55.20;;;;;;5095813;28;20020;-78
2022/06/15 01:22:37;;;;;;;7.97;3.28;;;22.20;55.10;;;;;;5076350;28;20032;-78
2022/06/15 01:25:33;;;;;;;7.47;3.30;;;22.30;55.00;;;;;;5095472;28;20114;-78
2022/06/15 01:28:04;;;;;;;6.00;3.10;;;22.50;54.80;;;;;;5061761;28;20035;-79
2022/06/15 01:30:34;;;;;;;5.82;3.65;;;22.30;55.30;;;;;;5072943;28;20032;-79
2022/06/15 01:33:06;;;;;;;5.45;3.75;;;22.20;55.30;;;;;;5095603;28;20069;-78
2022/06/15 01:35:55;;;;;;;4.65;3.33;;;22.20;55.40;;;;;;5094972;28;20047;-78
2022/06/15 01:38:38;;;;;;;5.70;3.97;;;22.30;55.20;;;;;;5077888;28;20028;-78
2022/06/15 01:41:10;;;;;;;6.32;3.67;;;22.30;55.10;;;;;;5076678;28;20115;-79
2022/06/15 01:43:49;;;;;;;5.32;3.60;;;22.30;55.10;;;;;;5095308;28;20028;-79
2022/06/15 01:46:15;;;;;;;5.85;3.40;;;22.10;55.80;;;;;;5077412;28;20028;-78
2022/06/15 01:48:42;;;;;;;6.55;3.70;;;22.00;55.50;;;;;;5075837;28;20031;-78
2022/06/15 01:51:16;;;;;;;5.68;3.75;;;21.50;56.70;;;;;;5074507;28;20032;-77
2022/06/15 01:54:18;;;;;;;4.93;4.10;;;21.40;57.00;;;;;;5063448;28;20081;-79
2022/06/15 01:56:46;;;;;;;6.25;3.85;;;21.40;56.80;;;;;;5054037;28;20104;-78
2022/06/15 01:59:18;;;;;;;4.45;3.70;;;21.50;56.70;;;;;;5094758;28;20028;-79
2022/06/15 02:02:09;;;;;;;5.65;3.50;;;21.50;56.80;;;;;;5094237;28;20028;-80
2022/06/15 02:04:48;;;;;;;4.72;3.50;;;21.40;57.10;;;;;;5063371;28;20480;-78
2022/06/15 02:07:55;;;;;;;5.43;3.42;;;21.40;57.10;;;;;;5076198;28;20440;-79
2022/06/15 02:10:27;;;;;;;5.10;3.65;;;21.40;56.80;;;;;;5095458;28;20020;-79
2022/06/15 02:13:08;;;;;;;5.50;3.90;;;21.40;56.60;;;;;;5057471;28;20063;-77
2022/06/15 02:15:38;;;;;;;4.65;3.40;;;21.30;56.90;;;;;;5073286;28;20071;-78
2022/06/15 02:18:09;;;;;;;5.68;3.45;;;21.40;57.10;;;;;;5065559;28;20052;-78
2022/06/15 02:20:42;;;;;;;7.63;3.72;;;21.50;56.90;;;;;;5093724;28;20074;-81
2022/06/15 02:23:11;;;;;;;6.60;3.88;;;21.50;56.80;;;;;;5092526;28;20020;-79
2022/06/15 02:25:40;;;;;;;4.70;3.70;;;21.30;57.40;;;;;;5076267;28;20119;-76
2022/06/15 02:28:06;;;;;;;5.20;3.75;;;21.30;57.10;;;;;;5090522;28;20024;-80
2022/06/15 02:30:32;;;;;;;5.97;3.90;;;21.20;57.50;;;;;;5075251;28;20046;-79
2022/06/15 02:33:08;;;;;;;5.47;3.88;;;21.00;57.70;;;;;;5094711;28;20079;-79
2022/06/15 02:35:34;;;;;;;5.43;3.90;;;21.00;57.60;;;;;;5093852;28;20047;-77
2022/06/15 02:37:59;;;;;;;5.95;3.65;;;21.10;57.20;;;;;;5075735;28;20360;-79
2022/06/15 02:40:25;;;;;;;6.00;3.83;;;21.00;57.80;;;;;;5076321;28;20054;-78
2022/06/15 02:42:51;;;;;;;6.45;3.88;;;21.20;57.70;;;;;;5093134;28;20443;-78
2022/06/15 02:45:26;;;;;;;4.60;3.55;;;21.30;57.40;;;;;;5092446;28;20123;-79
2022/06/15 02:47:52;;;;;;;5.00;3.33;;;21.20;57.40;;;;;;5085258;28;20028;-81
2022/06/15 02:50:21;;;;;;;4.53;3.55;;;21.10;57.20;;;;;;5092839;28;20103;-76
2022/06/15 02:53:08;;;;;;;4.65;3.50;;;21.00;57.40;;;;;;5076197;28;20224;-81
2022/06/15 02:55:35;;;;;;;6.03;3.63;;;21.10;57.30;;;;;;5061094;28;20510;-78
2022/06/15 02:58:06;;;;;;;4.68;3.70;;;21.30;56.90;;;;;;5093626;28;20090;-76
2022/06/15 03:00:32;;;;;;;5.40;3.60;;;21.20;56.80;;;;;;5093776;28;20035;-79
2022/06/15 03:02:58;;;;;;;4.75;3.25;;;21.30;56.70;;;;;;5076248;28;20493;-78
2022/06/15 03:05:24;;;;;;;4.13;3.42;;;21.20;57.00;;;;;;5093843;28;20043;-78
2022/06/15 03:07:50;;;;;;;7.53;3.83;;;21.10;57.50;;;;;;5093243;28;20387;-76
2022/06/15 03:10:15;;;;;;;4.38;3.70;;;21.20;57.10;;;;;;5075026;28;20039;-75
2022/06/15 03:12:41;;;;;;;7.43;3.95;;;21.40;56.90;;;;;;5093642;28;20032;-78
2022/06/15 03:15:07;;;;;;;5.25;3.75;;;21.50;56.70;;;;;;5074276;28;20069;-78
2022/06/15 03:17:33;;;;;;;4.60;3.47;;;21.50;56.60;;;;;;5088487;28;20425;-78
2022/06/15 03:19:59;;;;;;;4.93;3.75;;;21.30;56.80;;;;;;5073065;28;20020;-79
2022/06/15 03:22:24;;;;;;;6.18;3.85;;;21.20;56.90;;;;;;5092979;28;20039;-79
2022/06/15 03:24:50;;;;;;;5.05;3.30;;;21.20;57.20;;;;;;5092065;28;20070;-79
2022/06/15 03:27:18;;;;;;;4.38;3.28;;;21.30;56.90;;;;;;5072032;28;20058;-77
2022/06/15 03:29:45;;;;;;;5.15;3.42;;;21.30;56.70;;;;;;5092993;28;20101;-84
2022/06/15 03:32:14;;;;;;;5.63;3.55;;;21.10;56.90;;;;;;5073621;28;20067;-78
2022/06/15 03:34:39;;;;;;;5.10;3.30;;;21.10;57.00;;;;;;5091849;28;20031;-77
2022/06/15 03:37:05;;;;;;;6.28;3.60;;;21.00;57.30;;;;;;5093376;28;20032;-80
2022/06/15 03:39:31;;;;;;;4.88;3.70;;;21.00;57.40;;;;;;5092667;28;20061;-79
2022/06/15 03:42:08;;;;;;;4.93;3.42;;;20.90;57.70;;;;;;5074408;28;20036;-79
2022/06/15 03:44:33;;;;;;;6.30;3.50;;;21.10;57.90;;;;;;5075484;28;20394;-80
2022/06/15 03:46:59;;;;;;;4.38;3.45;;;21.10;57.90;;;;;;5072421;28;20028;-79
2022/06/15 03:49:24;;;;;;;5.57;3.72;;;21.00;58.60;;;;;;5092445;28;20130;-77
2022/06/15 03:51:50;;;;;;;4.63;3.72;;;20.90;58.70;;;;;;5091896;28;20041;-78
2022/06/15 03:54:16;;;;;;;7.68;3.15;;;21.00;58.90;;;;;;5091913;28;20107;-78
2022/06/15 03:56:45;;;;;;;7.10;3.60;;;21.30;58.50;;;;;;5073814;28;20036;-80
2022/06/15 03:59:11;;;;;;;4.68;3.35;;;21.50;58.10;;;;;;5058152;28;20501;-78
2022/06/15 04:01:36;;;;;;;6.38;3.65;;;21.60;57.60;;;;;;5063730;28;20152;-76
2022/06/15 04:04:02;;;;;;;6.00;3.75;;;21.70;57.50;;;;;;5092660;28;20299;-79
2022/06/15 04:06:28;;;;;;;4.28;3.50;;;21.70;57.70;;;;;;5074449;28;20036;-78
2022/06/15 04:08:54;;;;;;;6.15;3.47;;;21.60;57.60;;;;;;5091841;28;20142;-79
2022/06/15 04:14:06;;;;;;;4.78;3.38;;;21.70;57.40;;;;;;5092825;28;20073;-80
2022/06/15 04:16:32;;;;;;;5.38;3.45;;;21.80;57.10;;;;;;5091219;28;20044;-80
2022/06/15 04:19:02;;;;;;;4.68;3.38;;;21.80;57.00;;;;;;5073213;28;20028;-77
2022/06/15 04:21:28;;;;;;;5.85;3.50;;;21.80;57.20;;;;;;5091979;28;20035;-79
2022/06/15 04:23:54;;;;;;;7.00;3.28;;;21.80;57.00;;;;;;5082054;28;20063;-77
2022/06/15 04:26:20;;;;;;;5.65;3.40;;;21.90;57.10;;;;;;5085710;28;20108;-76
2022/06/15 04:28:46;;;;;;;5.38;3.45;;;21.90;56.80;;;;;;5087769;28;20110;-78
2022/06/15 04:31:11;;;;;;;4.72;3.33;;;21.90;57.30;;;;;;5055045;28;20033;-78
2022/06/15 04:33:37;;;;;;;5.78;3.22;;;22.00;57.00;;;;;;5091522;28;20020;-76
2022/06/15 04:36:03;;;;;;;6.00;3.22;;;22.10;56.50;;;;;;5073765;28;20398;-77
2022/06/15 04:38:29;;;;;;;3.97;3.10;;;22.20;57.20;;;;;;5074360;28;20039;-82
2022/06/15 04:40:55;;;;;;;7.75;3.40;;;22.40;56.20;;;;;;5069505;28;20028;-77
2022/06/15 04:43:21;;;;;;;4.50;3.17;;;22.60;56.00;;;;;;5062179;28;20025;-74
2022/06/15 04:45:47;;;;;;;4.38;3.00;;;22.60;55.50;;;;;;5074394;28;20471;-76
2022/06/15 04:48:12;;;;;;;3.95;3.00;;;22.50;55.70;;;;;;5074197;28;20046;-76
2022/06/15 04:50:39;;;;;;;6.78;3.10;;;22.60;55.80;;;;;;5092488;28;20030;-76
2022/06/15 04:53:05;;;;;;;4.20;2.92;;;22.70;56.50;;;;;;5092752;28;20039;-80
2022/06/15 04:55:32;;;;;;;4.07;3.03;;;22.80;55.70;;;;;;5057449;28;20040;-79
2022/06/15 04:57:59;;;;;;;5.53;3.20;;;23.00;55.50;;;;;;5059175;28;20038;-77
2022/06/15 05:00:29;;;;;;;7.65;3.00;;;23.20;55.40;;;;;;5074516;28;20391;-79
2022/06/15 05:02:55;;;;;;;;;;;23.30;54.60;;;;;;5073225;28;20027;-76
2022/06/15 05:05:21;;;;;;;3.83;3.00;;;23.40;54.60;;;;;;5091734;28;19911;-78
2022/06/15 05:07:47;;;;;;;5.03;3.10;;;23.50;54.60;;;;;;5072608;28;20028;-76
2022/06/15 05:10:18;;;;;;;3.90;2.53;;;23.60;54.80;;;;;;5090176;28;20070;-75
2022/06/15 05:12:45;;;;;;;5.20;2.85;;;23.60;54.20;;;;;;5071877;28;20028;-79
2022/06/15 05:15:13;;;;;;;6.13;2.90;;;23.50;54.40;;;;;;5069220;28;20028;-81
2022/06/15 05:17:39;;;;;;;5.18;2.80;;;23.50;54.40;;;;;;5059636;28;20052;-78
2022/06/15 05:20:06;;;;;;;6.32;3.20;;;23.60;54.50;;;;;;5082693;28;20021;-79
2022/06/15 05:22:32;;;;;;;5.15;2.60;;;23.70;54.00;;;;;;5085778;28;20020;-77
2022/06/15 05:24:58;;;;;;;5.70;2.95;;;23.80;53.90;;;;;;5065082;28;20379;-78
2022/06/15 05:27:24;;;;;;;5.07;2.55;;;23.70;54.20;;;;;;5064801;28;20024;-79
2022/06/15 05:29:49;;;;;;;3.90;2.42;;;23.80;54.10;;;;;;5080838;28;20020;-78
2022/06/15 05:32:15;;;;;;;3.80;2.58;;;24.10;53.50;;;;;;5081311;28;20451;-77
2022/06/15 05:34:41;;;;;;;4.20;2.60;;;23.80;53.50;;;;;;5080890;28;20036;-79
2022/06/15 05:37:06;;;;;;;3.42;2.53;;;23.80;53.40;;;;;;5070161;28;20475;-77
2022/06/15 05:39:32;;;;;;;4.28;2.60;;;23.80;53.60;;;;;;5089844;28;20035;-80
2022/06/15 05:41:58;;;;;;;5.85;2.78;;;23.50;54.00;;;;;;5074785;28;20042;-77
2022/06/15 05:44:35;;;;;;;3.85;2.65;;;23.80;52.90;;;;;;5078074;28;20031;-79
2022/06/15 05:47:01;;;;;;;4.95;2.55;;;24.20;52.90;;;;;;5077921;28;20020;-80
2022/06/15 05:49:28;;;;;;;3.78;2.50;;;24.20;52.90;;;;;;5078626;28;20085;-85
2022/06/15 05:51:53;;;;;;;5.22;2.90;;;24.20;54.10;;;;;;5078417;28;20469;-82
2022/06/15 05:54:20;;;;;;;4.25;2.70;;;24.10;54.60;;;;;;5078655;28;20020;-81
2022/06/15 05:56:46;;;;;;;4.15;2.83;;;24.70;54.10;;;;;;5096113;28;20123;-81
2022/06/15 05:59:11;;;;;;;6.75;2.85;;;25.30;52.20;;;;;;5077970;28;20051;-79
2022/06/15 06:01:38;;;;;;;5.30;3.03;;;25.70;51.10;;;;;;5077733;28;20471;-80
2022/06/15 06:04:05;;;;;;;4.40;2.65;;;25.90;51.20;;;;;;5077395;28;20024;-78
2022/06/15 06:06:31;;;;;;;4.63;3.35;;;26.30;51.20;;;;;;5077895;28;20020;-82
2022/06/15 06:08:59;;;;;;;4.43;2.38;;;26.80;50.90;;;;;;5077664;28;20038;-81
2022/06/15 06:11:25;;;;;;;5.97;2.97;;;26.90;50.40;;;;;;5095745;28;20035;-81
2022/06/15 06:13:51;;;;;;;4.45;2.60;;;26.60;51.30;;;;;;5095588;28;20062;-85
2022/06/15 06:16:18;;;;;;;6.93;2.78;;;26.70;50.90;;;;;;5077586;28;20028;-86
2022/06/15 06:18:44;;;;;;;4.07;2.50;;;26.90;51.20;;;;;;5095654;28;20016;-80
2022/06/15 06:21:10;;;;;;;4.30;2.50;;;26.90;50.40;;;;;;5077992;28;20028;-83
2022/06/15 06:23:36;;;;;;;4.65;2.75;;;26.60;50.90;;;;;;5077805;28;20030;-80
2022/06/15 06:26:04;;;;;;;5.45;2.80;;;26.60;52.00;;;;;;5095550;28;20030;-80
2022/06/15 06:28:40;;;;;;;5.35;2.50;;;27.10;50.00;;;;;;5077883;28;20145;-83
2022/06/15 06:31:09;;;;;;;6.68;2.85;;;27.40;51.00;;;;;;5077450;28;20024;-82
2022/06/15 06:33:37;;;;;;;5.03;2.60;;;27.70;50.70;;;;;;5077063;28;20051;-88
2022/06/15 06:36:13;;;;;;;4.43;2.50;;;27.70;51.00;;;;;;5078157;28;20048;-80
2022/06/15 06:38:39;;;;;;;6.43;2.63;;;27.30;50.10;;;;;;5078509;28;20031;-81
2022/06/15 06:41:05;;;;;;;5.45;2.58;;;26.00;51.10;;;;;;5077606;28;20032;-84
2022/06/15 06:43:31;;;;;;;4.32;2.63;;;26.20;51.00;;;;;;5077720;28;20126;-84
2022/06/15 06:45:57;;;;;;;4.18;2.70;;;26.70;51.30;;;;;;5095920;28;20028;-88
2022/06/15 06:48:22;;;;;;;4.00;2.67;;;27.10;49.60;;;;;;5078359;28;20028;-81
2022/06/15 06:50:52;;;;;;;4.32;2.40;;;27.30;48.00;;;;;;5078331;28;20031;-83
2022/06/15 06:53:18;;;;;;;5.85;2.75;;;27.30;48.60;;;;;;5077202;28;20028;-80
2022/06/15 06:55:44;;;;;;;9.82;2.70;;;27.50;48.70;;;;;;5095547;28;20040;-82
2022/06/15 06:58:10;;;;;;;4.15;2.50;;;27.50;47.10;;;;;;5078109;28;20112;-84
2022/06/15 07:00:36;;;;;;;4.05;2.10;;;27.10;47.40;;;;;;5077669;28;20057;-89
2022/06/15 07:03:06;;;;;;;4.57;2.50;;;27.00;47.30;;;;;;5078116;28;20482;-83
2022/06/15 07:05:36;;;;;;;4.70;2.20;;;26.80;47.20;;;;;;5095593;28;20035;-80
2022/06/15 07:08:03;;;;;;;3.50;2.30;;;26.80;49.30;;;;;;5076540;28;20364;-81
2022/06/15 07:10:28;;;;;;;6.57;2.40;;;27.30;47.60;;;;;;5077393;28;20157;-89
2022/06/15 07:12:54;;;;;;;5.05;2.63;;;26.90;48.10;;;;;;5078110;28;20122;-82
2022/06/15 07:15:21;;;;;;;5.40;2.85;;;26.70;47.30;;;;;;5077563;28;20031;-88
2022/06/15 07:17:46;;;;;;;3.40;2.20;;;26.80;47.00;;;;;;5077984;28;20047;-90
2022/06/15 07:20:12;;;;;;;3.90;2.30;;;26.90;46.40;;;;;;5077364;28;20364;-82
2022/06/15 07:22:39;;;;;;;4.60;2.22;;;27.00;47.60;;;;;;5076834;28;20020;-84
2022/06/15 07:25:06;;;;;;;3.70;2.40;;;27.50;48.90;;;;;;5077261;28;20063;-91
2022/06/15 07:27:37;;;;;;;5.40;2.40;;;27.40;46.70;;;;;;5076852;28;20036;-84
2022/06/15 07:30:09;;;;;;;4.88;2.30;;;27.20;47.70;;;;;;5077255;28;20017;-81
2022/06/15 07:32:37;;;;;;;4.22;2.40;;;27.50;46.80;;;;;;5077572;28;20028;-83
2022/06/15 07:35:03;;;;;;;7.35;2.50;;;27.50;48.20;;;;;;5077514;28;20077;-89
2022/06/15 07:37:29;;;;;;;3.70;2.30;;;27.80;46.80;;;;;;5077806;28;20024;-91
2022/06/15 07:39:55;;;;;;;4.03;2.40;;;28.00;47.80;;;;;;5076338;28;20093;-83
2022/06/15 07:42:26;;;;;;;3.58;2.40;;;28.20;47.90;;;;;;5077251;28;20024;-85
2022/06/15 07:44:52;;;;;;;5.78;2.30;;;28.60;47.20;;;;;;5076618;28;20027;-84
2022/06/15 07:50:08;;;;;;;3.45;2.22;;;28.60;45.70;;;;;;5094972;28;20068;-88
2022/06/15 07:52:41;;;;;;;4.95;2.30;;;28.20;45.30;;;;;;5076926;28;20045;-84
2022/06/15 07:55:09;;;;;;;4.30;2.60;;;27.60;45.60;;;;;;5076729;28;20032;-85
2022/06/15 07:57:36;;;;;;;4.50;2.45;;;27.60;46.50;;;;;;5076367;28;20039;-85
2022/06/15 08:00:07;;;;;;;3.88;2.28;;;27.60;47.20;;;;;;5076757;28;20024;-93
2022/06/15 08:02:33;;;;;;;4.55;2.50;;;28.10;48.30;;;;;;5077094;28;20031;-84
2022/06/15 08:04:59;;;;;;;5.63;2.25;;;28.20;45.90;;;;;;5093971;28;20027;-87
2022/06/15 08:07:25;;;;;;;3.85;2.13;;;28.10;47.10;;;;;;5076317;28;20066;-87
2022/06/15 08:09:50;;;;;;;6.82;2.40;;;28.50;46.00;;;;;;5076304;28;20055;-86
2022/06/15 08:12:18;;;;;;;4.45;2.38;;;28.30;46.00;;;;;;5075689;28;20020;-82
2022/06/15 08:14:48;;;;;;;3.80;2.33;;;28.80;46.80;;;;;;5093536;28;20070;-82
2022/06/15 08:17:21;;;;;;;5.00;2.35;;;29.10;45.30;;;;;;5093641;28;20066;-80
2022/06/15 08:19:51;;;;;;;4.32;2.15;;;29.40;45.50;;;;;;5075718;28;20024;-80
2022/06/15 08:22:17;;;;;;;5.60;2.30;;;29.60;46.00;;;;;;5075487;28;20409;-86
2022/06/15 08:24:45;;;;;;;4.30;2.33;;;29.90;46.20;;;;;;5094367;28;20028;-84
2022/06/15 08:27:13;;;;;;;5.93;2.58;;;30.00;46.00;;;;;;5076124;28;20036;-81
2022/06/15 08:29:40;;;;;;;3.85;2.45;;;29.90;45.90;;;;;;5075828;28;20056;-84
2022/06/15 08:32:07;;;;;;;5.25;2.50;;;29.70;45.50;;;;;;5093595;28;20016;-78
2022/06/15 08:34:37;;;;;;;4.30;2.10;;;29.60;45.80;;;;;;5093204;28;20107;-81
2022/06/15 08:37:08;;;;;;;4.50;2.30;;;29.60;45.90;;;;;;5075117;28;20109;-81
2022/06/15 08:39:34;;;;;;;4.25;2.20;;;29.90;44.70;;;;;;5075252;28;20065;-81
2022/06/15 08:42:27;;;;;;;4.07;2.40;;;30.10;44.10;;;;;;5074978;28;20060;-77
2022/06/15 08:45:04;;;;;;;3.60;2.10;;;30.20;44.00;;;;;;5093565;28;20024;-91
2022/06/15 08:47:45;;;;;;;5.57;2.40;;;30.10;42.80;;;;;;5093965;28;20027;-79
2022/06/15 08:50:18;;;;;;;4.88;2.30;;;28.50;43.90;;;;;;5093373;28;20031;-80
2022/06/15 08:52:48;;;;;;;5.95;2.20;;;28.60;44.80;;;;;;5075220;28;20023;-81
2022/06/15 08:55:39;;;;;;;5.07;2.20;;;28.70;44.60;;;;;;5092885;28;20440;-78
2022/06/15 08:58:24;;;;;;;5.05;2.20;;;29.10;44.20;;;;;;5074976;28;20487;-82
2022/06/15 09:00:54;;;;;;;5.47;2.20;;;29.40;44.90;;;;;;5092862;28;20379;-82
2022/06/15 09:03:58;;;;;;;4.78;2.40;;;29.80;43.70;;;;;;5075552;28;20471;-81
2022/06/15 09:07:02;;;;;;;4.30;2.33;;;29.70;43.60;;;;;;5092836;28;20030;-77
2022/06/15 09:09:58;;;;;;;3.50;2.00;;;29.60;44.00;;;;;;4975292;28;20441;-79
2022/06/15 09:12:52;;;;;;;5.25;2.22;;;30.10;43.20;;;;;;4975018;28;20031;-82
2022/06/15 09:15:48;;;;;;;4.72;2.10;;;30.50;44.10;;;;;;4991042;28;20038;-78
2022/06/15 09:18:36;;;;;;;5.10;2.20;;;30.40;43.10;;;;;;4961588;28;20042;-87
2022/06/15 09:21:07;;;;;;;6.72;2.15;;;30.00;43.30;;;;;;4995447;28;20031;-80
2022/06/15 09:23:55;;;;;;;3.35;2.00;;;30.00;43.00;;;;;;4979342;28;20121;-82
2022/06/15 09:26:27;;;;;;;4.05;2.15;;;30.40;42.90;;;;;;4995495;28;20129;-76
2022/06/15 09:29:29;;;;;;;5.10;2.00;;;30.60;43.90;;;;;;4978647;28;20065;-75
2022/06/15 09:32:18;;;;;;;4.18;2.00;;;29.80;42.50;;;;;;4993353;28;20497;-80
2022/06/15 09:35:18;;;;;;;3.90;1.75;;;29.80;43.50;;;;;;4978059;28;20108;-81
2022/06/15 09:37:50;;;;;;;5.85;2.28;;;30.30;43.90;;;;;;4995400;28;20026;-82
2022/06/15 09:40:16;;;;;;;3.95;2.08;;;30.70;43.70;;;;;;4978741;28;20080;-84
2022/06/15 09:43:03;;;;;;;4.72;2.10;;;31.00;45.10;;;;;;4994685;28;20030;-80
2022/06/15 09:45:37;;;;;;;4.05;2.10;;;31.10;44.20;;;;;;4988134;28;20034;-86
2022/06/15 09:48:06;;;;;;;5.00;2.10;;;31.20;43.90;;;;;;5079136;28;20024;-89
2022/06/15 09:50:50;;;;;;;5.72;2.00;;;31.10;42.80;;;;;;5097597;28;20059;-89
2022/06/15 09:53:42;;;;;;;3.67;2.20;;;30.60;42.90;;;;;;5078918;28;20065;-85
2022/06/15 09:56:11;;;;;;;4.65;2.40;;;30.40;44.70;;;;;;5078819;28;20036;-86
2022/06/15 09:58:42;;;;;;;4.82;2.05;;;30.30;43.80;;;;;;5078786;28;20034;-87
2022/06/15 10:01:10;;;;;;;11.43;10.60;;;30.60;43.70;;;;;;5078791;28;20490;-79
2022/06/15 10:03:44;;;;;;;4.65;2.10;;;30.90;42.00;;;;;;5096802;28;20477;-86
2022/06/15 10:06:32;;;;;;;4.65;2.03;;;31.00;43.40;;;;;;5077934;28;20414;-88
2022/06/15 10:09:02;;;;;;;4.28;2.17;;;31.30;41.80;;;;;;5078361;28;20028;-86
2022/06/15 10:11:32;;;;;;;5.50;2.13;;;30.70;41.80;;;;;;5078564;28;20485;-83
2022/06/15 10:14:29;;;;;;;8.18;2.22;;;30.60;42.40;;;;;;5096790;28;20113;-90
2022/06/15 10:16:58;;;;;;;4.68;2.22;;;31.00;42.60;;;;;;5078053;28;20344;-80
2022/06/15 10:19:25;;;;;;;3.15;1.90;;;31.40;43.50;;;;;;5096035;28;20020;-85
2022/06/15 10:21:56;;;;;;;3.78;1.75;;;31.70;41.50;;;;;;5078373;28;20027;-82
2022/06/15 10:24:38;;;;;;;4.03;1.90;;;31.40;40.60;;;;;;5078777;28;20016;-82
2022/06/15 10:27:16;;;;;;;3.28;1.80;;;31.10;42.70;;;;;;5095131;28;20039;-80
2022/06/15 10:29:43;;;;;;;3.63;1.98;;;31.30;42.80;;;;;;5077297;28;20437;-77
2022/06/15 10:32:09;;;;;;;3.00;1.90;;;31.50;42.40;;;;;;5076978;28;20528;-79
2022/06/15 10:34:50;;;;;;;3.40;1.90;;;31.50;42.00;;;;;;5076907;28;20032;-79
2022/06/15 10:37:56;;;;;;;4.15;1.77;;;31.60;42.40;;;;;;5095125;28;20122;-84
2022/06/15 10:40:34;;;;;;;3.38;1.80;;;32.00;42.70;;;;;;4977437;28;20100;-77
2022/06/15 10:43:14;;;;;;;3.63;1.80;;;32.40;42.80;;;;;;4977896;28;20049;-79
2022/06/15 10:45:59;;;;;;;4.53;2.00;;;32.50;42.60;;;;;;4977494;28;20038;-83
2022/06/15 10:48:44;;;;;;;3.83;1.90;;;32.60;43.20;;;;;;4994057;28;20042;-76
2022/06/15 10:51:32;;;;;;;3.75;1.80;;;32.50;41.80;;;;;;4993314;28;20529;-79
2022/06/15 10:54:16;;;;;;;4.18;2.10;;;32.60;42.40;;;;;;4977005;28;20023;-79
2022/06/15 11:02:44;;;;;;;4.03;1.83;;;32.60;41.60;;;;;;4992975;28;20054;-88
2022/06/15 11:05:10;;;;;;;3.63;1.70;;;32.80;41.90;;;;;;4992602;28;20493;-84
2022/06/15 11:07:47;;;;;;;4.95;1.90;;;32.60;42.30;;;;;;4976890;28;20030;-80
2022/06/15 11:10:42;;;;;;;3.10;1.83;;;32.50;43.60;;;;;;4993693;28;20089;-88
2022/06/15 11:13:20;;;;;;;2.75;1.70;;;32.40;43.40;;;;;;4993378;28;20432;-78
2022/06/15 11:18:37;;;;;;;4.15;1.83;;;32.20;42.80;;;;;;5095163;28;20043;-89
2022/06/15 11:21:25;;;;;;;8.02;2.47;;;32.00;42.00;;;;;;5087351;28;20478;-81
2022/06/15 11:23:57;;;;;;;4.38;2.00;;;31.90;42.80;;;;;;5056537;28;20471;-85
2022/06/15 11:29:53;;;;;;;4.18;1.75;;;31.80;41.50;;;;;;4386132;28;10000641;-87
2022/06/15 11:32:41;;;;;;;3.92;1.85;;;31.60;42.10;;;;;;5060735;28;20119;-82
2022/06/15 11:35:13;;;;;;;5.25;2.22;;;31.80;41.20;;;;;;5070182;28;20056;-79
2022/06/15 11:37:55;;;;;;;4.50;2.10;;;31.80;41.50;;;;;;5057003;28;20372;-90
2022/06/15 11:40:34;;;;;;;3.88;2.00;;;32.10;42.70;;;;;;5052498;28;20039;-86
2022/06/15 11:43:02;;;;;;;5.18;2.00;;;32.20;41.60;;;;;;5065281;28;20030;-82
2022/06/15 11:46:16;;;;;;;4.28;1.83;;;32.50;41.50;;;;;;5060045;28;20032;-81
2022/06/15 11:49:04;;;;;;;3.95;1.80;;;31.60;40.10;;;;;;5047269;28;20095;-77
2022/06/15 11:52:07;;;;;;;4.45;1.80;;;31.50;41.50;;;;;;5062266;28;20020;-79
2022/06/15 11:55:08;;;;;;;3.60;1.80;;;32.00;41.40;;;;;;5065963;28;20028;-86
2022/06/15 11:57:42;;;;;;;4.32;2.00;;;31.70;42.90;;;;;;5058266;28;20140;-83
2022/06/15 12:00:16;;;;;;;4.35;2.20;;;31.30;40.80;;;;;;5066365;28;20043;-82
2022/06/15 12:03:05;;;;;;;3.70;1.90;;;31.40;43.20;;;;;;5070844;28;20491;-91
2022/06/15 12:05:43;;;;;;;3.45;1.80;;;31.50;41.40;;;;;;5064283;28;20371;-88
2022/06/15 12:08:54;;;;;;;4.10;1.98;;;30.80;42.10;;;;;;5055119;28;20120;-88
2022/06/15 12:14:46;;;;;;;3.08;1.83;;;31.50;41.30;;;;;;5057901;28;20123;-78
2022/06/15 12:17:17;;;;;;;2.80;1.55;;;32.10;41.70;;;;;;5057396;28;20056;-81
2022/06/15 12:20:03;;;;;;;4.38;1.80;;;32.50;40.50;;;;;;5069236;28;20078;-80
2022/06/15 12:22:54;;;;;;;3.38;1.77;;;32.60;39.90;;;;;;5065107;28;20029;-80
2022/06/15 12:25:48;;;;;;;5.35;4.93;;;32.80;41.20;;;;;;5064778;28;20031;-82
2022/06/15 12:28:58;;;;;;;3.15;1.67;;;32.50;40.80;;;;;;5064675;28;20020;-82
2022/06/15 12:31:36;;;;;;;4.63;1.90;;;32.70;41.20;;;;;;4972382;28;20068;-79
2022/06/15 12:34:13;;;;;;;4.00;1.73;;;32.90;41.60;;;;;;4989109;28;20042;-76
2022/06/15 12:37:03;;;;;;;5.15;1.80;;;33.10;40.50;;;;;;4971586;28;20042;-73
2022/06/15 12:39:55;;;;;;;3.70;1.80;;;32.80;40.50;;;;;;4984588;28;20396;-75
2022/06/15 12:42:22;;;;;;;2.78;1.70;;;32.40;41.30;;;;;;4988946;28;20038;-84
2022/06/15 12:45:05;;;;;;;2.78;1.58;;;32.50;40.50;;;;;;4973814;28;20030;-85
2022/06/15 12:47:33;;;;;;;3.45;1.77;;;32.60;40.70;;;;;;4978028;28;20046;-78
2022/06/15 12:50:23;;;;;;;3.80;1.90;;;32.50;41.20;;;;;;4998546;28;20109;-78
2022/06/15 12:53:11;;;;;;;4.10;1.70;;;32.60;39.60;;;;;;5003276;28;20058;-87
2022/06/15 12:56:21;;;;;;;4.88;1.77;;;32.70;41.90;;;;;;4978517;28;20456;-80
2022/06/15 12:59:24;;;;;;;5.00;2.63;;;32.40;41.60;;;;;;4971736;28;20061;-90
2022/06/15 13:02:19;;;;;;;4.47;1.80;;;32.10;39.90;;;;;;4999351;28;20030;-86
2022/06/15 13:05:06;;;;;;;3.78;1.70;;;32.00;40.20;;;;;;4995001;28;20431;-87
2022/06/15 13:07:37;;;;;;;4.72;1.60;;;32.20;41.10;;;;;;5039836;28;20426;-83
2022/06/15 13:10:24;;;;;;;2.78;1.48;;;32.10;41.80;;;;;;5069541;28;20550;-81
2022/06/15 13:13:00;;;;;;;6.50;1.73;;;32.20;42.00;;;;;;5061676;28;20025;-83
2022/06/15 13:15:51;;;;;;;3.15;1.70;;;31.70;41.40;;;;;;5062587;28;20537;-83
2022/06/15 13:18:22;;;;;;;4.03;1.70;;;31.90;41.80;;;;;;5064902;28;20033;-76
2022/06/15 13:20:53;;;;;;;2.85;1.73;;;32.40;41.20;;;;;;5062143;28;20032;-82
2022/06/15 13:23:22;;;;;;;3.50;1.77;;;32.60;41.80;;;;;;5076493;28;20043;-84
2022/06/15 13:26:10;;;;;;;3.70;1.63;;;32.80;41.80;;;;;;5051307;28;20017;-84
2022/06/15 13:28:58;;;;;;;3.92;1.60;;;32.80;40.90;;;;;;5060389;28;20028;-87
2022/06/15 13:31:46;;;;;;;2.85;1.70;;;32.30;41.80;;;;;;5061427;28;20545;-83
2022/06/15 13:34:20;;;;;;;2.70;1.65;;;32.50;39.80;;;;;;5057323;28;20025;-79
2022/06/15 13:37:20;;;;;;;2.88;1.60;;;32.40;39.70;;;;;;5088045;28;20098;-78
2022/06/15 13:40:12;;;;;;;3.65;1.60;;;32.00;40.80;;;;;;5096081;28;20074;-92
2022/06/15 13:42:44;;;;;;;4.10;1.88;;;32.20;39.80;;;;;;5078243;28;20028;-78